sensor_id;sensor_type;location;lat;lon;timestamp;P1;durP1;ratioP1;P2;durP2;ratioP2
2225;SDS011;1119;48.288;8.726;2023-10-08T00:00:42;20.43;;;2.57;;
2225;SDS011;1119;48.288;8.726;2023-10-08T00:03:13;20.53;;;2.43;;
2225;SDS011;1119;48.288;8.726;2023-10-08T00:05:40;20.40;;;2.20;;
2225;SDS011;1119;48.288;8.726;2023-10-08T00:08:08;20.10;;;2.57;;
2225;SDS011;1119;48.288;8.726;2023-10-08T00:10:37;20.60;;;2.80;;
2225;SDS011;1119;48.288;8.726;2023-10-08T00:13:08;20.50;;;2.70;;
2225;SDS011;1119;48.288;8.726;2023-10-08T00:15:35;20.53;;;2.40;;
2225;SDS011;1119;48.288;8.726;2023-10-08T00:18:03;20.40;;;2.43;;
2225;SDS011;1119;48.288;8.726;2023-10-08T00:20:32;20.50;;;2.50;;
2225;SDS011;1119;48.288;8.726;2023-10-08T00:23:26;20.60;;;2.80;;
2225;SDS011;1119;48.288;8.726;2023-10-08T00:25:56;20.50;;;2.53;;
2225;SDS011;1119;48.288;8.726;2023-10-08T00:28:30;20.60;;;2.67;;
2225;SDS011;1119;48.288;8.726;2023-10-08T00:30:58;20.40;;;2.40;;
2225;SDS011;1119;48.288;8.726;2023-10-08T00:33:37;20.50;;;2.67;;
2225;SDS011;1119;48.288;8.726;2023-10-08T00:36:05;20.47;;;2.10;;
2225;SDS011;1119;48.288;8.726;2023-10-08T00:38:43;20.60;;;2.70;;
2225;SDS011;1119;48.288;8.726;2023-10-08T00:41:12;20.53;;;2.50;;
2225;SDS011;1119;48.288;8.726;2023-10-08T00:43:42;20.40;;;2.63;;
2225;SDS011;1119;48.288;8.726;2023-10-08T00:46:14;20.40;;;2.40;;
2225;SDS011;1119;48.288;8.726;2023-10-08T00:48:48;20.57;;;2.60;;
2225;SDS011;1119;48.288;8.726;2023-10-08T00:51:18;20.50;;;2.63;;
2225;SDS011;1119;48.288;8.726;2023-10-08T00:53:54;20.50;;;2.90;;
2225;SDS011;1119;48.288;8.726;2023-10-08T00:56:31;20.50;;;2.40;;
2225;SDS011;1119;48.288;8.726;2023-10-08T00:59:16;20.37;;;2.10;;
2225;SDS011;1119;48.288;8.726;2023-10-08T01:01:47;20.40;;;2.50;;
2225;SDS011;1119;48.288;8.726;2023-10-08T01:04:17;20.50;;;2.50;;
2225;SDS011;1119;48.288;8.726;2023-10-08T01:06:48;20.50;;;2.90;;
2225;SDS011;1119;48.288;8.726;2023-10-08T01:09:21;20.30;;;2.20;;
2225;SDS011;1119;48.288;8.726;2023-10-08T01:12:06;20.40;;;2.33;;
2225;SDS011;1119;48.288;8.726;2023-10-08T01:14:39;20.40;;;2.10;;
2225;SDS011;1119;48.288;8.726;2023-10-08T01:17:08;20.40;;;2.40;;
2225;SDS011;1119;48.288;8.726;2023-10-08T01:19:39;20.50;;;2.33;;
2225;SDS011;1119;48.288;8.726;2023-10-08T01:22:10;20.47;;;2.37;;
2225;SDS011;1119;48.288;8.726;2023-10-08T01:24:43;20.30;;;2.43;;
2225;SDS011;1119;48.288;8.726;2023-10-08T01:27:13;20.50;;;2.43;;
2225;SDS011;1119;48.288;8.726;2023-10-08T01:29:47;20.40;;;2.30;;
2225;SDS011;1119;48.288;8.726;2023-10-08T01:32:15;20.40;;;2.43;;
2225;SDS011;1119;48.288;8.726;2023-10-08T01:34:44;20.50;;;2.40;;
2225;SDS011;1119;48.288;8.726;2023-10-08T01:37:14;20.50;;;2.43;;
2225;SDS011;1119;48.288;8.726;2023-10-08T01:39:43;20.40;;;2.43;;
2225;SDS011;1119;48.288;8.726;2023-10-08T01:42:10;20.47;;;2.47;;
2225;SDS011;1119;48.288;8.726;2023-10-08T01:44:43;20.37;;;2.37;;
2225;SDS011;1119;48.288;8.726;2023-10-08T01:47:14;20.43;;;2.40;;
2225;SDS011;1119;48.288;8.726;2023-10-08T01:49:42;20.37;;;2.20;;
2225;SDS011;1119;48.288;8.726;2023-10-08T01:52:11;20.50;;;2.60;;
2225;SDS011;1119;48.288;8.726;2023-10-08T01:54:45;20.47;;;2.60;;
2225;SDS011;1119;48.288;8.726;2023-10-08T01:57:13;20.40;;;2.40;;
2225;SDS011;1119;48.288;8.726;2023-10-08T01:59:40;20.50;;;2.47;;
2225;SDS011;1119;48.288;8.726;2023-10-08T02:02:09;20.53;;;2.30;;
2225;SDS011;1119;48.288;8.726;2023-10-08T02:04:39;20.53;;;2.27;;
2225;SDS011;1119;48.288;8.726;2023-10-08T02:07:06;20.47;;;2.43;;
2225;SDS011;1119;48.288;8.726;2023-10-08T02:09:37;20.40;;;2.40;;
2225;SDS011;1119;48.288;8.726;2023-10-08T02:12:06;20.47;;;2.00;;
2225;SDS011;1119;48.288;8.726;2023-10-08T02:14:34;20.67;;;2.60;;
2225;SDS011;1119;48.288;8.726;2023-10-08T02:17:01;20.57;;;2.30;;
2225;SDS011;1119;48.288;8.726;2023-10-08T02:19:35;20.50;;;2.33;;
2225;SDS011;1119;48.288;8.726;2023-10-08T02:22:02;20.57;;;2.50;;
2225;SDS011;1119;48.288;8.726;2023-10-08T02:24:35;20.30;;;2.30;;
2225;SDS011;1119;48.288;8.726;2023-10-08T02:27:08;20.50;;;2.30;;
2225;SDS011;1119;48.288;8.726;2023-10-08T02:29:40;20.53;;;2.30;;
2225;SDS011;1119;48.288;8.726;2023-10-08T02:32:08;20.50;;;2.50;;
2225;SDS011;1119;48.288;8.726;2023-10-08T02:34:35;20.50;;;2.17;;
2225;SDS011;1119;48.288;8.726;2023-10-08T02:37:06;20.50;;;2.13;;
2225;SDS011;1119;48.288;8.726;2023-10-08T02:39:36;20.60;;;2.50;;
2225;SDS011;1119;48.288;8.726;2023-10-08T02:42:05;20.60;;;2.60;;
2225;SDS011;1119;48.288;8.726;2023-10-08T02:44:37;20.50;;;2.30;;
2225;SDS011;1119;48.288;8.726;2023-10-08T02:47:07;20.50;;;2.30;;
2225;SDS011;1119;48.288;8.726;2023-10-08T02:49:37;20.57;;;2.23;;
2225;SDS011;1119;48.288;8.726;2023-10-08T02:52:06;20.60;;;2.60;;
2225;SDS011;1119;48.288;8.726;2023-10-08T02:54:35;20.63;;;2.37;;
2225;SDS011;1119;48.288;8.726;2023-10-08T02:57:03;20.63;;;2.40;;
2225;SDS011;1119;48.288;8.726;2023-10-08T02:59:41;20.50;;;2.13;;
2225;SDS011;1119;48.288;8.726;2023-10-08T03:02:11;20.60;;;2.20;;
2225;SDS011;1119;48.288;8.726;2023-10-08T03:04:44;20.57;;;2.40;;
2225;SDS011;1119;48.288;8.726;2023-10-08T03:07:14;20.57;;;2.50;;
2225;SDS011;1119;48.288;8.726;2023-10-08T03:09:49;20.60;;;2.60;;
2225;SDS011;1119;48.288;8.726;2023-10-08T03:12:28;20.57;;;2.50;;
2225;SDS011;1119;48.288;8.726;2023-10-08T03:14:59;20.50;;;2.23;;
2225;SDS011;1119;48.288;8.726;2023-10-08T03:17:39;20.50;;;2.37;;
2225;SDS011;1119;48.288;8.726;2023-10-08T03:20:14;20.40;;;2.27;;
2225;SDS011;1119;48.288;8.726;2023-10-08T03:22:55;20.40;;;2.33;;
2225;SDS011;1119;48.288;8.726;2023-10-08T03:25:23;20.47;;;1.93;;
2225;SDS011;1119;48.288;8.726;2023-10-08T03:27:52;20.60;;;2.77;;
2225;SDS011;1119;48.288;8.726;2023-10-08T03:30:21;20.50;;;2.27;;
2225;SDS011;1119;48.288;8.726;2023-10-08T03:32:52;20.40;;;2.43;;
2225;SDS011;1119;48.288;8.726;2023-10-08T03:35:25;20.60;;;2.50;;
2225;SDS011;1119;48.288;8.726;2023-10-08T03:38:02;20.53;;;2.40;;
2225;SDS011;1119;48.288;8.726;2023-10-08T03:40:56;20.40;;;1.70;;
2225;SDS011;1119;48.288;8.726;2023-10-08T03:43:31;20.47;;;2.10;;
2225;SDS011;1119;48.288;8.726;2023-10-08T03:46:12;20.40;;;2.20;;
2225;SDS011;1119;48.288;8.726;2023-10-08T03:48:41;20.40;;;2.10;;
2225;SDS011;1119;48.288;8.726;2023-10-08T03:51:11;20.57;;;2.47;;
2225;SDS011;1119;48.288;8.726;2023-10-08T03:53:40;20.40;;;2.03;;
2225;SDS011;1119;48.288;8.726;2023-10-08T03:56:25;20.30;;;2.07;;
2225;SDS011;1119;48.288;8.726;2023-10-08T03:58:55;20.43;;;2.20;;
2225;SDS011;1119;48.288;8.726;2023-10-08T04:01:26;20.40;;;2.10;;
2225;SDS011;1119;48.288;8.726;2023-10-08T04:03:57;20.53;;;2.40;;
2225;SDS011;1119;48.288;8.726;2023-10-08T04:06:27;20.43;;;2.40;;
2225;SDS011;1119;48.288;8.726;2023-10-08T04:08:56;20.63;;;2.77;;
2225;SDS011;1119;48.288;8.726;2023-10-08T04:11:38;20.50;;;2.60;;
2225;SDS011;1119;48.288;8.726;2023-10-08T04:14:17;20.30;;;2.40;;
2225;SDS011;1119;48.288;8.726;2023-10-08T04:16:45;20.40;;;2.33;;
2225;SDS011;1119;48.288;8.726;2023-10-08T04:19:17;20.40;;;2.30;;
2225;SDS011;1119;48.288;8.726;2023-10-08T04:21:46;20.53;;;2.40;;
2225;SDS011;1119;48.288;8.726;2023-10-08T04:24:20;20.40;;;2.70;;
2225;SDS011;1119;48.288;8.726;2023-10-08T04:26:55;20.30;;;2.00;;
2225;SDS011;1119;48.288;8.726;2023-10-08T04:29:23;20.33;;;2.20;;
2225;SDS011;1119;48.288;8.726;2023-10-08T04:31:52;20.50;;;2.13;;
2225;SDS011;1119;48.288;8.726;2023-10-08T04:34:33;20.60;;;2.40;;
2225;SDS011;1119;48.288;8.726;2023-10-08T04:37:00;20.40;;;2.50;;
2225;SDS011;1119;48.288;8.726;2023-10-08T04:39:32;20.47;;;2.50;;
2225;SDS011;1119;48.288;8.726;2023-10-08T04:42:01;20.40;;;2.50;;
2225;SDS011;1119;48.288;8.726;2023-10-08T04:44:36;20.40;;;2.60;;
2225;SDS011;1119;48.288;8.726;2023-10-08T04:47:06;20.40;;;2.47;;
2225;SDS011;1119;48.288;8.726;2023-10-08T04:49:54;20.40;;;2.23;;
2225;SDS011;1119;48.288;8.726;2023-10-08T04:52:22;20.40;;;2.30;;
2225;SDS011;1119;48.288;8.726;2023-10-08T04:54:50;20.40;;;2.20;;
2225;SDS011;1119;48.288;8.726;2023-10-08T04:57:21;20.40;;;2.33;;
2225;SDS011;1119;48.288;8.726;2023-10-08T04:59:51;20.53;;;2.63;;
2225;SDS011;1119;48.288;8.726;2023-10-08T05:02:22;20.40;;;2.50;;
2225;SDS011;1119;48.288;8.726;2023-10-08T05:04:59;20.40;;;2.63;;
2225;SDS011;1119;48.288;8.726;2023-10-08T05:07:48;20.20;;;1.83;;
2225;SDS011;1119;48.288;8.726;2023-10-08T05:10:42;20.37;;;2.30;;
2225;SDS011;1119;48.288;8.726;2023-10-08T05:13:42;20.40;;;2.20;;
2225;SDS011;1119;48.288;8.726;2023-10-08T05:16:26;20.30;;;2.13;;
2225;SDS011;1119;48.288;8.726;2023-10-08T05:19:02;20.40;;;2.37;;
2225;SDS011;1119;48.288;8.726;2023-10-08T05:21:47;20.30;;;2.23;;
2225;SDS011;1119;48.288;8.726;2023-10-08T05:24:27;20.30;;;2.40;;
2225;SDS011;1119;48.288;8.726;2023-10-08T05:27:04;20.30;;;2.03;;
2225;SDS011;1119;48.288;8.726;2023-10-08T05:29:49;20.47;;;2.40;;
2225;SDS011;1119;48.288;8.726;2023-10-08T05:32:36;20.40;;;2.50;;
2225;SDS011;1119;48.288;8.726;2023-10-08T05:35:09;20.40;;;2.00;;
2225;SDS011;1119;48.288;8.726;2023-10-08T05:37:53;20.40;;;2.40;;
2225;SDS011;1119;48.288;8.726;2023-10-08T05:40:38;20.30;;;2.00;;
2225;SDS011;1119;48.288;8.726;2023-10-08T05:43:25;20.43;;;2.47;;
2225;SDS011;1119;48.288;8.726;2023-10-08T05:46:15;20.37;;;2.37;;
2225;SDS011;1119;48.288;8.726;2023-10-08T05:49:00;20.43;;;2.40;;
2225;SDS011;1119;48.288;8.726;2023-10-08T05:51:29;20.50;;;2.60;;
2225;SDS011;1119;48.288;8.726;2023-10-08T05:54:11;20.40;;;2.40;;
2225;SDS011;1119;48.288;8.726;2023-10-08T05:57:01;20.40;;;2.70;;
2225;SDS011;1119;48.288;8.726;2023-10-08T05:59:32;20.30;;;2.20;;
2225;SDS011;1119;48.288;8.726;2023-10-08T06:02:19;20.40;;;2.60;;
2225;SDS011;1119;48.288;8.726;2023-10-08T06:04:53;20.30;;;2.20;;
2225;SDS011;1119;48.288;8.726;2023-10-08T06:07:46;20.37;;;2.33;;
2225;SDS011;1119;48.288;8.726;2023-10-08T06:10:22;20.40;;;2.50;;
2225;SDS011;1119;48.288;8.726;2023-10-08T06:13:06;20.37;;;2.17;;
2225;SDS011;1119;48.288;8.726;2023-10-08T06:15:40;20.27;;;2.30;;
2225;SDS011;1119;48.288;8.726;2023-10-08T06:18:15;20.30;;;2.13;;
2225;SDS011;1119;48.288;8.726;2023-10-08T06:20:44;20.40;;;2.27;;
2225;SDS011;1119;48.288;8.726;2023-10-08T06:23:12;20.27;;;2.00;;
2225;SDS011;1119;48.288;8.726;2023-10-08T06:25:44;20.23;;;2.10;;
2225;SDS011;1119;48.288;8.726;2023-10-08T06:28:12;20.10;;;2.00;;
2225;SDS011;1119;48.288;8.726;2023-10-08T06:30:42;20.30;;;2.43;;
2225;SDS011;1119;48.288;8.726;2023-10-08T06:33:10;20.37;;;2.30;;
2225;SDS011;1119;48.288;8.726;2023-10-08T06:35:38;20.40;;;2.40;;
2225;SDS011;1119;48.288;8.726;2023-10-08T06:38:09;20.23;;;2.30;;
2225;SDS011;1119;48.288;8.726;2023-10-08T06:40:40;20.27;;;2.10;;
2225;SDS011;1119;48.288;8.726;2023-10-08T06:43:10;20.40;;;2.50;;
2225;SDS011;1119;48.288;8.726;2023-10-08T06:45:47;20.40;;;2.23;;
2225;SDS011;1119;48.288;8.726;2023-10-08T06:48:18;20.30;;;2.33;;
2225;SDS011;1119;48.288;8.726;2023-10-08T06:50:48;20.40;;;2.60;;
2225;SDS011;1119;48.288;8.726;2023-10-08T06:53:17;20.40;;;2.50;;
2225;SDS011;1119;48.288;8.726;2023-10-08T06:55:44;20.30;;;2.30;;
2225;SDS011;1119;48.288;8.726;2023-10-08T06:58:13;20.50;;;2.73;;
2225;SDS011;1119;48.288;8.726;2023-10-08T07:00:42;20.43;;;2.70;;
2225;SDS011;1119;48.288;8.726;2023-10-08T07:03:16;20.37;;;2.30;;
2225;SDS011;1119;48.288;8.726;2023-10-08T07:05:44;20.30;;;2.40;;
2225;SDS011;1119;48.288;8.726;2023-10-08T07:08:24;20.20;;;2.30;;
2225;SDS011;1119;48.288;8.726;2023-10-08T07:10:57;20.40;;;2.70;;
2225;SDS011;1119;48.288;8.726;2023-10-08T07:13:26;20.33;;;2.70;;
2225;SDS011;1119;48.288;8.726;2023-10-08T07:15:55;20.30;;;2.77;;
2225;SDS011;1119;48.288;8.726;2023-10-08T07:18:23;20.37;;;2.60;;
2225;SDS011;1119;48.288;8.726;2023-10-08T07:20:51;20.30;;;2.70;;
2225;SDS011;1119;48.288;8.726;2023-10-08T07:23:21;20.30;;;2.50;;
2225;SDS011;1119;48.288;8.726;2023-10-08T07:25:53;20.40;;;2.70;;
2225;SDS011;1119;48.288;8.726;2023-10-08T07:28:26;20.40;;;2.90;;
2225;SDS011;1119;48.288;8.726;2023-10-08T07:30:55;20.20;;;2.67;;
2225;SDS011;1119;48.288;8.726;2023-10-08T07:33:23;20.27;;;3.10;;
2225;SDS011;1119;48.288;8.726;2023-10-08T07:36:02;20.17;;;3.27;;
2225;SDS011;1119;48.288;8.726;2023-10-08T07:38:39;20.17;;;3.07;;
2225;SDS011;1119;48.288;8.726;2023-10-08T07:41:09;20.17;;;3.30;;
2225;SDS011;1119;48.288;8.726;2023-10-08T07:43:38;20.20;;;3.37;;
2225;SDS011;1119;48.288;8.726;2023-10-08T07:46:05;20.30;;;2.90;;
2225;SDS011;1119;48.288;8.726;2023-10-08T07:48:33;20.40;;;2.80;;
2225;SDS011;1119;48.288;8.726;2023-10-08T07:51:00;20.40;;;3.13;;
2225;SDS011;1119;48.288;8.726;2023-10-08T07:53:28;20.50;;;3.13;;
2225;SDS011;1119;48.288;8.726;2023-10-08T07:56:03;20.60;;;3.40;;
2225;SDS011;1119;48.288;8.726;2023-10-08T07:58:35;20.57;;;3.30;;
2225;SDS011;1119;48.288;8.726;2023-10-08T08:01:06;20.60;;;3.30;;
2225;SDS011;1119;48.288;8.726;2023-10-08T08:03:35;20.60;;;3.30;;
2225;SDS011;1119;48.288;8.726;2023-10-08T08:06:04;20.60;;;3.20;;
2225;SDS011;1119;48.288;8.726;2023-10-08T08:08:35;20.73;;;3.50;;
2225;SDS011;1119;48.288;8.726;2023-10-08T08:11:05;20.40;;;2.73;;
2225;SDS011;1119;48.288;8.726;2023-10-08T08:13:38;20.53;;;3.13;;
2225;SDS011;1119;48.288;8.726;2023-10-08T08:16:08;20.40;;;2.80;;
2225;SDS011;1119;48.288;8.726;2023-10-08T08:18:43;20.30;;;3.30;;
2225;SDS011;1119;48.288;8.726;2023-10-08T08:21:11;20.37;;;2.80;;
2225;SDS011;1119;48.288;8.726;2023-10-08T08:23:41;20.10;;;2.70;;
2225;SDS011;1119;48.288;8.726;2023-10-08T08:26:13;20.30;;;3.10;;
2225;SDS011;1119;48.288;8.726;2023-10-08T08:28:54;20.30;;;3.03;;
2225;SDS011;1119;48.288;8.726;2023-10-08T08:31:22;20.30;;;2.90;;
2225;SDS011;1119;48.288;8.726;2023-10-08T08:33:51;20.27;;;2.90;;
2225;SDS011;1119;48.288;8.726;2023-10-08T08:36:26;20.30;;;3.10;;
2225;SDS011;1119;48.288;8.726;2023-10-08T08:38:54;20.33;;;3.20;;
2225;SDS011;1119;48.288;8.726;2023-10-08T08:41:22;20.40;;;3.40;;
2225;SDS011;1119;48.288;8.726;2023-10-08T08:43:50;20.00;;;3.07;;
2225;SDS011;1119;48.288;8.726;2023-10-08T08:46:31;20.07;;;3.07;;
2225;SDS011;1119;48.288;8.726;2023-10-08T08:49:02;20.13;;;3.43;;
2225;SDS011;1119;48.288;8.726;2023-10-08T08:51:33;20.00;;;3.13;;
2225;SDS011;1119;48.288;8.726;2023-10-08T08:54:02;19.97;;;3.23;;
2225;SDS011;1119;48.288;8.726;2023-10-08T08:56:32;20.00;;;3.30;;
2225;SDS011;1119;48.288;8.726;2023-10-08T08:59:02;19.97;;;3.13;;
2225;SDS011;1119;48.288;8.726;2023-10-08T09:01:32;19.90;;;3.17;;
2225;SDS011;1119;48.288;8.726;2023-10-08T09:04:01;20.00;;;2.90;;
2225;SDS011;1119;48.288;8.726;2023-10-08T09:06:31;20.07;;;3.70;;
2225;SDS011;1119;48.288;8.726;2023-10-08T09:09:00;20.13;;;3.20;;
2225;SDS011;1119;48.288;8.726;2023-10-08T09:11:47;20.07;;;3.13;;
2225;SDS011;1119;48.288;8.726;2023-10-08T09:14:17;20.00;;;3.07;;
2225;SDS011;1119;48.288;8.726;2023-10-08T09:16:50;20.07;;;3.10;;
2225;SDS011;1119;48.288;8.726;2023-10-08T09:19:17;20.00;;;3.20;;
2225;SDS011;1119;48.288;8.726;2023-10-08T09:21:52;19.90;;;3.10;;
2225;SDS011;1119;48.288;8.726;2023-10-08T09:24:29;20.03;;;3.20;;
2225;SDS011;1119;48.288;8.726;2023-10-08T09:26:59;19.90;;;3.23;;
2225;SDS011;1119;48.288;8.726;2023-10-08T09:29:27;20.00;;;3.20;;
2225;SDS011;1119;48.288;8.726;2023-10-08T09:31:57;19.80;;;3.03;;
2225;SDS011;1119;48.288;8.726;2023-10-08T09:34:25;20.20;;;3.13;;
2225;SDS011;1119;48.288;8.726;2023-10-08T09:36:55;20.20;;;3.20;;
2225;SDS011;1119;48.288;8.726;2023-10-08T09:39:26;20.00;;;2.67;;
2225;SDS011;1119;48.288;8.726;2023-10-08T09:42:00;20.10;;;3.43;;
2225;SDS011;1119;48.288;8.726;2023-10-08T09:44:29;20.27;;;3.60;;
2225;SDS011;1119;48.288;8.726;2023-10-08T09:47:02;20.00;;;2.90;;
2225;SDS011;1119;48.288;8.726;2023-10-08T09:49:38;20.10;;;3.20;;
2225;SDS011;1119;48.288;8.726;2023-10-08T09:52:08;20.00;;;2.97;;
2225;SDS011;1119;48.288;8.726;2023-10-08T09:54:42;20.13;;;3.43;;
2225;SDS011;1119;48.288;8.726;2023-10-08T09:57:16;20.27;;;3.50;;
2225;SDS011;1119;48.288;8.726;2023-10-08T09:59:45;20.10;;;3.20;;
2225;SDS011;1119;48.288;8.726;2023-10-08T10:02:16;20.07;;;3.00;;
2225;SDS011;1119;48.288;8.726;2023-10-08T10:04:49;20.00;;;3.37;;
2225;SDS011;1119;48.288;8.726;2023-10-08T10:07:19;20.10;;;3.53;;
2225;SDS011;1119;48.288;8.726;2023-10-08T10:09:49;20.20;;;3.53;;
2225;SDS011;1119;48.288;8.726;2023-10-08T10:12:20;20.07;;;3.17;;
2225;SDS011;1119;48.288;8.726;2023-10-08T10:14:52;19.87;;;3.30;;
2225;SDS011;1119;48.288;8.726;2023-10-08T10:17:22;20.10;;;3.60;;
2225;SDS011;1119;48.288;8.726;2023-10-08T10:19:53;19.90;;;3.10;;
2225;SDS011;1119;48.288;8.726;2023-10-08T10:22:27;20.17;;;3.50;;
2225;SDS011;1119;48.288;8.726;2023-10-08T10:24:56;20.10;;;3.33;;
2225;SDS011;1119;48.288;8.726;2023-10-08T10:27:25;20.00;;;3.23;;
2225;SDS011;1119;48.288;8.726;2023-10-08T10:30:00;20.07;;;3.80;;
2225;SDS011;1119;48.288;8.726;2023-10-08T10:32:36;20.13;;;3.60;;
2225;SDS011;1119;48.288;8.726;2023-10-08T10:35:05;20.13;;;3.80;;
2225;SDS011;1119;48.288;8.726;2023-10-08T10:37:39;20.07;;;3.50;;
2225;SDS011;1119;48.288;8.726;2023-10-08T10:40:19;20.10;;;3.27;;
2225;SDS011;1119;48.288;8.726;2023-10-08T10:42:55;20.07;;;3.33;;
2225;SDS011;1119;48.288;8.726;2023-10-08T10:45:23;20.00;;;3.50;;
2225;SDS011;1119;48.288;8.726;2023-10-08T10:48:07;20.20;;;3.60;;
2225;SDS011;1119;48.288;8.726;2023-10-08T10:50:38;20.03;;;3.47;;
2225;SDS011;1119;48.288;8.726;2023-10-08T10:53:27;20.13;;;3.80;;
2225;SDS011;1119;48.288;8.726;2023-10-08T10:55:55;20.10;;;3.57;;
2225;SDS011;1119;48.288;8.726;2023-10-08T10:58:30;20.10;;;3.60;;
2225;SDS011;1119;48.288;8.726;2023-10-08T11:01:05;20.13;;;3.57;;
2225;SDS011;1119;48.288;8.726;2023-10-08T11:03:51;20.10;;;3.60;;
2225;SDS011;1119;48.288;8.726;2023-10-08T11:06:19;20.03;;;3.67;;
2225;SDS011;1119;48.288;8.726;2023-10-08T11:08:49;20.20;;;4.00;;
2225;SDS011;1119;48.288;8.726;2023-10-08T11:11:17;20.17;;;3.63;;
2225;SDS011;1119;48.288;8.726;2023-10-08T11:13:45;20.17;;;3.57;;
2225;SDS011;1119;48.288;8.726;2023-10-08T11:16:22;20.07;;;3.67;;
2225;SDS011;1119;48.288;8.726;2023-10-08T11:18:52;20.10;;;3.50;;
2225;SDS011;1119;48.288;8.726;2023-10-08T11:21:23;20.07;;;3.53;;
2225;SDS011;1119;48.288;8.726;2023-10-08T11:23:51;20.07;;;3.63;;
2225;SDS011;1119;48.288;8.726;2023-10-08T11:26:22;20.17;;;3.70;;
2225;SDS011;1119;48.288;8.726;2023-10-08T11:28:58;19.97;;;3.47;;
2225;SDS011;1119;48.288;8.726;2023-10-08T11:31:28;20.07;;;3.80;;
2225;SDS011;1119;48.288;8.726;2023-10-08T11:34:01;20.20;;;3.60;;
2225;SDS011;1119;48.288;8.726;2023-10-08T11:36:35;20.07;;;3.80;;
2225;SDS011;1119;48.288;8.726;2023-10-08T11:39:14;20.20;;;4.10;;
2225;SDS011;1119;48.288;8.726;2023-10-08T11:41:54;20.10;;;3.60;;
2225;SDS011;1119;48.288;8.726;2023-10-08T11:44:29;20.10;;;3.60;;
2225;SDS011;1119;48.288;8.726;2023-10-08T11:47:01;19.93;;;3.73;;
2225;SDS011;1119;48.288;8.726;2023-10-08T11:49:38;20.10;;;3.53;;
2225;SDS011;1119;48.288;8.726;2023-10-08T11:52:12;20.23;;;4.00;;
2225;SDS011;1119;48.288;8.726;2023-10-08T11:54:41;20.13;;;3.53;;
2225;SDS011;1119;48.288;8.726;2023-10-08T11:57:09;20.13;;;3.67;;
2225;SDS011;1119;48.288;8.726;2023-10-08T11:59:37;20.30;;;3.83;;
2225;SDS011;1119;48.288;8.726;2023-10-08T12:02:05;20.00;;;3.80;;
2225;SDS011;1119;48.288;8.726;2023-10-08T12:04:33;20.27;;;4.30;;
2225;SDS011;1119;48.288;8.726;2023-10-08T12:07:03;20.20;;;4.10;;
2225;SDS011;1119;48.288;8.726;2023-10-08T12:09:36;20.17;;;4.00;;
2225;SDS011;1119;48.288;8.726;2023-10-08T12:12:06;20.20;;;3.80;;
2225;SDS011;1119;48.288;8.726;2023-10-08T12:14:34;20.10;;;3.47;;
2225;SDS011;1119;48.288;8.726;2023-10-08T12:17:03;20.10;;;3.57;;
2225;SDS011;1119;48.288;8.726;2023-10-08T12:19:37;20.20;;;4.03;;
2225;SDS011;1119;48.288;8.726;2023-10-08T12:22:07;20.10;;;3.67;;
2225;SDS011;1119;48.288;8.726;2023-10-08T12:24:34;20.27;;;3.80;;
2225;SDS011;1119;48.288;8.726;2023-10-08T12:27:03;20.10;;;3.80;;
2225;SDS011;1119;48.288;8.726;2023-10-08T12:29:35;19.80;;;3.30;;
2225;SDS011;1119;48.288;8.726;2023-10-08T12:32:03;20.17;;;3.90;;
2225;SDS011;1119;48.288;8.726;2023-10-08T12:34:41;20.00;;;3.47;;
2225;SDS011;1119;48.288;8.726;2023-10-08T12:37:10;19.87;;;3.80;;
2225;SDS011;1119;48.288;8.726;2023-10-08T12:39:40;20.27;;;4.00;;
2225;SDS011;1119;48.288;8.726;2023-10-08T12:42:25;20.27;;;3.90;;
2225;SDS011;1119;48.288;8.726;2023-10-08T12:44:53;20.17;;;4.07;;
2225;SDS011;1119;48.288;8.726;2023-10-08T12:47:22;20.30;;;4.00;;
2225;SDS011;1119;48.288;8.726;2023-10-08T12:49:54;20.20;;;3.83;;
2225;SDS011;1119;48.288;8.726;2023-10-08T12:52:24;20.00;;;3.40;;
2225;SDS011;1119;48.288;8.726;2023-10-08T12:54:53;20.17;;;3.47;;
2225;SDS011;1119;48.288;8.726;2023-10-08T12:57:23;20.20;;;3.70;;
2225;SDS011;1119;48.288;8.726;2023-10-08T12:59:57;20.00;;;3.53;;
2225;SDS011;1119;48.288;8.726;2023-10-08T13:02:25;19.90;;;3.90;;
2225;SDS011;1119;48.288;8.726;2023-10-08T13:04:53;20.20;;;3.90;;
2225;SDS011;1119;48.288;8.726;2023-10-08T13:07:24;20.10;;;3.63;;
2225;SDS011;1119;48.288;8.726;2023-10-08T13:09:53;20.20;;;4.00;;
2225;SDS011;1119;48.288;8.726;2023-10-08T13:12:23;20.27;;;3.90;;
2225;SDS011;1119;48.288;8.726;2023-10-08T13:14:50;20.20;;;3.50;;
2225;SDS011;1119;48.288;8.726;2023-10-08T13:17:18;20.27;;;3.83;;
2225;SDS011;1119;48.288;8.726;2023-10-08T13:19:46;20.10;;;3.70;;
2225;SDS011;1119;48.288;8.726;2023-10-08T13:22:13;20.30;;;4.20;;
2225;SDS011;1119;48.288;8.726;2023-10-08T13:24:46;20.00;;;3.60;;
2225;SDS011;1119;48.288;8.726;2023-10-08T13:27:14;20.00;;;3.87;;
2225;SDS011;1119;48.288;8.726;2023-10-08T13:29:42;20.23;;;3.87;;
2225;SDS011;1119;48.288;8.726;2023-10-08T13:32:10;20.17;;;3.73;;
2225;SDS011;1119;48.288;8.726;2023-10-08T13:34:42;20.13;;;3.60;;
2225;SDS011;1119;48.288;8.726;2023-10-08T13:37:11;20.07;;;3.17;;
2225;SDS011;1119;48.288;8.726;2023-10-08T13:39:40;20.10;;;3.43;;
2225;SDS011;1119;48.288;8.726;2023-10-08T13:42:11;20.03;;;3.70;;
2225;SDS011;1119;48.288;8.726;2023-10-08T13:44:44;20.10;;;3.60;;
2225;SDS011;1119;48.288;8.726;2023-10-08T13:47:12;20.13;;;3.30;;
2225;SDS011;1119;48.288;8.726;2023-10-08T13:49:40;20.00;;;3.63;;
2225;SDS011;1119;48.288;8.726;2023-10-08T13:52:08;20.10;;;3.73;;
2225;SDS011;1119;48.288;8.726;2023-10-08T13:54:36;20.17;;;3.37;;
2225;SDS011;1119;48.288;8.726;2023-10-08T13:57:08;20.23;;;3.37;;
2225;SDS011;1119;48.288;8.726;2023-10-08T13:59:41;20.20;;;3.60;;
2225;SDS011;1119;48.288;8.726;2023-10-08T14:02:09;20.13;;;3.37;;
2225;SDS011;1119;48.288;8.726;2023-10-08T14:04:41;20.23;;;3.97;;
2225;SDS011;1119;48.288;8.726;2023-10-08T14:07:10;20.33;;;3.87;;
2225;SDS011;1119;48.288;8.726;2023-10-08T14:09:42;20.23;;;4.00;;
2225;SDS011;1119;48.288;8.726;2023-10-08T14:12:11;20.10;;;3.20;;
2225;SDS011;1119;48.288;8.726;2023-10-08T14:14:41;19.87;;;3.60;;
2225;SDS011;1119;48.288;8.726;2023-10-08T14:17:11;20.20;;;3.70;;
2225;SDS011;1119;48.288;8.726;2023-10-08T14:19:41;20.10;;;3.63;;
2225;SDS011;1119;48.288;8.726;2023-10-08T14:22:17;20.30;;;3.80;;
2225;SDS011;1119;48.288;8.726;2023-10-08T14:24:47;20.00;;;3.73;;
2225;SDS011;1119;48.288;8.726;2023-10-08T14:27:24;20.27;;;3.80;;
2225;SDS011;1119;48.288;8.726;2023-10-08T14:29:58;20.27;;;3.90;;
2225;SDS011;1119;48.288;8.726;2023-10-08T14:32:26;20.10;;;3.40;;
2225;SDS011;1119;48.288;8.726;2023-10-08T14:34:54;20.27;;;3.50;;
2225;SDS011;1119;48.288;8.726;2023-10-08T14:37:39;20.07;;;3.23;;
2225;SDS011;1119;48.288;8.726;2023-10-08T14:40:24;20.10;;;3.70;;
2225;SDS011;1119;48.288;8.726;2023-10-08T14:43:09;19.90;;;3.10;;
2225;SDS011;1119;48.288;8.726;2023-10-08T14:45:38;20.30;;;3.53;;
2225;SDS011;1119;48.288;8.726;2023-10-08T14:48:06;19.90;;;3.70;;
2225;SDS011;1119;48.288;8.726;2023-10-08T14:50:36;20.20;;;3.37;;
2225;SDS011;1119;48.288;8.726;2023-10-08T14:53:04;20.17;;;3.50;;
2225;SDS011;1119;48.288;8.726;2023-10-08T14:55:32;20.00;;;3.80;;
2225;SDS011;1119;48.288;8.726;2023-10-08T14:58:01;20.10;;;3.20;;
2225;SDS011;1119;48.288;8.726;2023-10-08T15:00:33;19.90;;;3.23;;
2225;SDS011;1119;48.288;8.726;2023-10-08T15:03:04;20.10;;;3.60;;
2225;SDS011;1119;48.288;8.726;2023-10-08T15:05:32;20.17;;;3.50;;
2225;SDS011;1119;48.288;8.726;2023-10-08T15:08:02;20.27;;;3.50;;
2225;SDS011;1119;48.288;8.726;2023-10-08T15:10:35;19.90;;;3.50;;
2225;SDS011;1119;48.288;8.726;2023-10-08T15:13:03;20.13;;;3.47;;
2225;SDS011;1119;48.288;8.726;2023-10-08T15:15:32;20.20;;;3.23;;
2225;SDS011;1119;48.288;8.726;2023-10-08T15:18:00;20.10;;;3.17;;
2225;SDS011;1119;48.288;8.726;2023-10-08T15:20:29;20.27;;;3.67;;
2225;SDS011;1119;48.288;8.726;2023-10-08T15:23:00;20.10;;;3.27;;
2225;SDS011;1119;48.288;8.726;2023-10-08T15:25:28;20.00;;;3.30;;
2225;SDS011;1119;48.288;8.726;2023-10-08T15:27:56;20.30;;;3.50;;
2225;SDS011;1119;48.288;8.726;2023-10-08T15:30:24;20.10;;;3.57;;